sensor_id;sensor_type;location;lat;lon;timestamp;pressure;altitude;pressure_sealevel;temperature
75811;BMP280;64449;50.016;19.954;2023-04-24T00:00:01;97930.59;;;16.42
75811;BMP280;64449;50.016;19.954;2023-04-24T00:02:28;97927.53;;;16.39
75811;BMP280;64449;50.016;19.954;2023-04-24T00:04:53;97924.11;;;16.40
75811;BMP280;64449;50.016;19.954;2023-04-24T00:07:19;97923.20;;;16.43
75811;BMP280;64449;50.016;19.954;2023-04-24T00:09:45;97918.29;;;16.46
75811;BMP280;64449;50.016;19.954;2023-04-24T00:12:11;97917.61;;;16.48
75811;BMP280;64449;50.016;19.954;2023-04-24T00:14:36;97917.27;;;16.48
75811;BMP280;64449;50.016;19.954;2023-04-24T00:17:02;97916.25;;;16.48
75811;BMP280;64449;50.016;19.954;2023-04-24T00:19:28;97914.50;;;16.47
75811;BMP280;64449;50.016;19.954;2023-04-24T00:21:54;97917.13;;;16.46
75811;BMP280;64449;50.016;19.954;2023-04-24T00:24:20;97915.73;;;16.45
75811;BMP280;64449;50.016;19.954;2023-04-24T00:26:45;97911.73;;;16.42
75811;BMP280;64449;50.016;19.954;2023-04-24T00:29:11;97908.11;;;16.41
75811;BMP280;64449;50.016;19.954;2023-04-24T00:31:36;97906.90;;;16.41
75811;BMP280;64449;50.016;19.954;2023-04-24T00:34:02;97906.27;;;16.40
75811;BMP280;64449;50.016;19.954;2023-04-24T00:36:28;97905.13;;;16.40
75811;BMP280;64449;50.016;19.954;2023-04-24T00:38:54;97902.71;;;16.40
75811;BMP280;64449;50.016;19.954;2023-04-24T00:41:20;97899.61;;;16.40
75811;BMP280;64449;50.016;19.954;2023-04-24T00:43:47;97898.71;;;16.39
75811;BMP280;64449;50.016;19.954;2023-04-24T00:46:13;97900.37;;;16.39
75811;BMP280;64449;50.016;19.954;2023-04-24T00:48:39;97898.29;;;16.38
75811;BMP280;64449;50.016;19.954;2023-04-24T00:51:06;97892.61;;;16.36
75811;BMP280;64449;50.016;19.954;2023-04-24T00:53:31;97890.92;;;16.35
75811;BMP280;64449;50.016;19.954;2023-04-24T00:55:57;97890.36;;;16.34
75811;BMP280;64449;50.016;19.954;2023-04-24T00:58:24;97889.60;;;16.32
75811;BMP280;64449;50.016;19.954;2023-04-24T01:00:50;97889.30;;;16.30
75811;BMP280;64449;50.016;19.954;2023-04-24T01:03:20;97887.30;;;16.27
75811;BMP280;64449;50.016;19.954;2023-04-24T01:05:47;97882.84;;;16.23
75811;BMP280;64449;50.016;19.954;2023-04-24T01:08:13;97880.97;;;16.20
75811;BMP280;64449;50.016;19.954;2023-04-24T01:10:41;97881.84;;;16.18
75811;BMP280;64449;50.016;19.954;2023-04-24T01:13:08;97880.30;;;16.17
75811;BMP280;64449;50.016;19.954;2023-04-24T01:15:34;97879.52;;;16.14
75811;BMP280;64449;50.016;19.954;2023-04-24T01:17:59;97877.27;;;16.09
75811;BMP280;64449;50.016;19.954;2023-04-24T01:20:25;97873.82;;;16.05
75811;BMP280;64449;50.016;19.954;2023-04-24T01:22:52;97873.23;;;16.02
75811;BMP280;64449;50.016;19.954;2023-04-24T01:25:18;97871.25;;;15.98
75811;BMP280;64449;50.016;19.954;2023-04-24T01:27:43;97871.52;;;15.94
75811;BMP280;64449;50.016;19.954;2023-04-24T01:30:10;97868.73;;;15.89
75811;BMP280;64449;50.016;19.954;2023-04-24T01:32:36;97865.70;;;15.85
75811;BMP280;64449;50.016;19.954;2023-04-24T01:35:03;97864.39;;;15.82
75811;BMP280;64449;50.016;19.954;2023-04-24T01:37:29;97861.09;;;15.77
75811;BMP280;64449;50.016;19.954;2023-04-24T01:39:54;97860.18;;;15.76
75811;BMP280;64449;50.016;19.954;2023-04-24T01:42:20;97859.78;;;15.76
75811;BMP280;64449;50.016;19.954;2023-04-24T01:44:46;97857.87;;;15.76
75811;BMP280;64449;50.016;19.954;2023-04-24T01:47:12;97856.48;;;15.74
75811;BMP280;64449;50.016;19.954;2023-04-24T01:49:38;97850.38;;;15.71
75811;BMP280;64449;50.016;19.954;2023-04-24T01:52:04;97850.65;;;15.69
75811;BMP280;64449;50.016;19.954;2023-04-24T01:54:30;97847.27;;;15.68
75811;BMP280;64449;50.016;19.954;2023-04-24T01:56:55;97845.27;;;15.64
75811;BMP280;64449;50.016;19.954;2023-04-24T01:59:21;97841.58;;;15.60
75811;BMP280;64449;50.016;19.954;2023-04-24T02:01:48;97837.36;;;15.57
75811;BMP280;64449;50.016;19.954;2023-04-24T02:04:14;97836.65;;;15.54
75811;BMP280;64449;50.016;19.954;2023-04-24T02:06:40;97833.92;;;15.52
75811;BMP280;64449;50.016;19.954;2023-04-24T02:09:06;97828.17;;;15.51
75811;BMP280;64449;50.016;19.954;2023-04-24T02:11:31;97827.59;;;15.50
75811;BMP280;64449;50.016;19.954;2023-04-24T02:13:57;97824.23;;;15.51
75811;BMP280;64449;50.016;19.954;2023-04-24T02:16:22;97820.06;;;15.51
75811;BMP280;64449;50.016;19.954;2023-04-24T02:18:48;97819.75;;;15.51
75811;BMP280;64449;50.016;19.954;2023-04-24T02:21:13;97819.14;;;15.49
75811;BMP280;64449;50.016;19.954;2023-04-24T02:23:39;97818.20;;;15.47
75811;BMP280;64449;50.016;19.954;2023-04-24T02:26:04;97815.31;;;15.42
75811;BMP280;64449;50.016;19.954;2023-04-24T02:28:30;97811.33;;;15.41
75811;BMP280;64449;50.016;19.954;2023-04-24T02:30:55;97809.05;;;15.39
75811;BMP280;64449;50.016;19.954;2023-04-24T02:33:21;97807.90;;;15.38
75811;BMP280;64449;50.016;19.954;2023-04-24T02:35:46;97802.03;;;15.37
75811;BMP280;64449;50.016;19.954;2023-04-24T02:38:11;97799.33;;;15.37
75811;BMP280;64449;50.016;19.954;2023-04-24T02:40:37;97797.16;;;15.37
75811;BMP280;64449;50.016;19.954;2023-04-24T02:43:02;97794.38;;;15.35
75811;BMP280;64449;50.016;19.954;2023-04-24T02:45:28;97794.52;;;15.33
75811;BMP280;64449;50.016;19.954;2023-04-24T02:47:53;97793.66;;;15.33
75811;BMP280;64449;50.016;19.954;2023-04-24T02:50:19;97789.71;;;15.32
75811;BMP280;64449;50.016;19.954;2023-04-24T02:52:44;97786.11;;;15.31
75811;BMP280;64449;50.016;19.954;2023-04-24T02:55:10;97785.72;;;15.31
75811;BMP280;64449;50.016;19.954;2023-04-24T02:57:35;97782.30;;;15.30
75811;BMP280;64449;50.016;19.954;2023-04-24T03:00:01;97780.27;;;15.29
75811;BMP280;64449;50.016;19.954;2023-04-24T03:02:26;97780.55;;;15.27
75811;BMP280;64449;50.016;19.954;2023-04-24T03:04:51;97780.95;;;15.25
75811;BMP280;64449;50.016;19.954;2023-04-24T03:07:17;97778.36;;;15.23
75811;BMP280;64449;50.016;19.954;2023-04-24T03:09:46;97776.45;;;15.22
75811;BMP280;64449;50.016;19.954;2023-04-24T03:12:12;97776.98;;;15.22
75811;BMP280;64449;50.016;19.954;2023-04-24T03:14:38;97779.56;;;15.21
75811;BMP280;64449;50.016;19.954;2023-04-24T03:17:03;97782.42;;;15.20
75811;BMP280;64449;50.016;19.954;2023-04-24T03:19:28;97785.54;;;15.19
75811;BMP280;64449;50.016;19.954;2023-04-24T03:21:54;97782.75;;;15.16
75811;BMP280;64449;50.016;19.954;2023-04-24T03:24:19;97781.58;;;15.15
75811;BMP280;64449;50.016;19.954;2023-04-24T03:26:45;97782.52;;;15.12
75811;BMP280;64449;50.016;19.954;2023-04-24T03:29:11;97783.73;;;15.11
75811;BMP280;64449;50.016;19.954;2023-04-24T03:31:36;97781.10;;;15.08
75811;BMP280;64449;50.016;19.954;2023-04-24T03:34:01;97776.38;;;15.07
75811;BMP280;64449;50.016;19.954;2023-04-24T03:36:27;97777.64;;;15.06
75811;BMP280;64449;50.016;19.954;2023-04-24T03:38:52;97774.08;;;15.07
75811;BMP280;64449;50.016;19.954;2023-04-24T03:41:18;97776.08;;;15.08
75811;BMP280;64449;50.016;19.954;2023-04-24T03:43:44;97778.96;;;15.07
75811;BMP280;64449;50.016;19.954;2023-04-24T03:46:10;97779.73;;;15.08
75811;BMP280;64449;50.016;19.954;2023-04-24T03:48:35;97780.70;;;15.07
75811;BMP280;64449;50.016;19.954;2023-04-24T03:51:01;97778.75;;;15.06
75811;BMP280;64449;50.016;19.954;2023-04-24T03:53:26;97777.42;;;15.07
75811;BMP280;64449;50.016;19.954;2023-04-24T03:55:52;97778.81;;;15.07
75811;BMP280;64449;50.016;19.954;2023-04-24T03:58:18;97776.09;;;15.08
75811;BMP280;64449;50.016;19.954;2023-04-24T04:00:44;97777.03;;;15.07
75811;BMP280;64449;50.016;19.954;2023-04-24T04:03:09;97777.39;;;15.06
75811;BMP280;64449;50.016;19.954;2023-04-24T04:05:35;97779.15;;;15.03
75811;BMP280;64449;50.016;19.954;2023-04-24T04:08:00;97784.70;;;14.98
75811;BMP280;64449;50.016;19.954;2023-04-24T04:10:25;97782.98;;;14.95
75811;BMP280;64449;50.016;19.954;2023-04-24T04:12:51;97782.52;;;14.91
75811;BMP280;64449;50.016;19.954;2023-04-24T04:15:16;97782.80;;;14.88
75811;BMP280;64449;50.016;19.954;2023-04-24T04:17:42;97785.34;;;14.84
75811;BMP280;64449;50.016;19.954;2023-04-24T04:20:07;97785.11;;;14.80
75811;BMP280;64449;50.016;19.954;2023-04-24T04:22:37;97783.09;;;14.80
75811;BMP280;64449;50.016;19.954;2023-04-24T04:25:03;97783.34;;;14.78
75811;BMP280;64449;50.016;19.954;2023-04-24T04:27:29;97782.86;;;14.77
75811;BMP280;64449;50.016;19.954;2023-04-24T04:30:01;97784.16;;;14.76
75811;BMP280;64449;50.016;19.954;2023-04-24T04:32:32;97780.37;;;14.77
75811;BMP280;64449;50.016;19.954;2023-04-24T04:34:59;97778.30;;;14.78
75811;BMP280;64449;50.016;19.954;2023-04-24T04:37:31;97778.95;;;14.78
75811;BMP280;64449;50.016;19.954;2023-04-24T04:39:58;97775.52;;;14.78
75811;BMP280;64449;50.016;19.954;2023-04-24T04:42:25;97776.64;;;14.78
75811;BMP280;64449;50.016;19.954;2023-04-24T04:44:50;97778.86;;;14.79
75811;BMP280;64449;50.016;19.954;2023-04-24T04:47:16;97783.99;;;14.80
75811;BMP280;64449;50.016;19.954;2023-04-24T04:49:43;97781.73;;;14.79
75811;BMP280;64449;50.016;19.954;2023-04-24T04:52:09;97780.31;;;14.78
75811;BMP280;64449;50.016;19.954;2023-04-24T04:54:34;97778.95;;;14.77
75811;BMP280;64449;50.016;19.954;2023-04-24T04:57:00;97780.15;;;14.76
75811;BMP280;64449;50.016;19.954;2023-04-24T04:59:26;97779.59;;;14.76
75811;BMP280;64449;50.016;19.954;2023-04-24T05:01:52;97776.95;;;14.77
75811;BMP280;64449;50.016;19.954;2023-04-24T05:04:17;97776.98;;;14.78
75811;BMP280;64449;50.016;19.954;2023-04-24T05:06:43;97779.52;;;14.79
75811;BMP280;64449;50.016;19.954;2023-04-24T05:09:09;97785.17;;;14.82
75811;BMP280;64449;50.016;19.954;2023-04-24T05:11:34;97784.05;;;14.86
75811;BMP280;64449;50.016;19.954;2023-04-24T05:14:00;97780.98;;;14.90
75811;BMP280;64449;50.016;19.954;2023-04-24T05:16:26;97780.20;;;14.93
75811;BMP280;64449;50.016;19.954;2023-04-24T05:18:51;97780.30;;;14.99
75811;BMP280;64449;50.016;19.954;2023-04-24T05:21:17;97781.39;;;15.05
75811;BMP280;64449;50.016;19.954;2023-04-24T05:23:42;97778.89;;;15.10
75811;BMP280;64449;50.016;19.954;2023-04-24T05:26:08;97776.61;;;15.15
75811;BMP280;64449;50.016;19.954;2023-04-24T05:28:33;97775.85;;;15.21
75811;BMP280;64449;50.016;19.954;2023-04-24T05:31:02;97769.36;;;15.27
75811;BMP280;64449;50.016;19.954;2023-04-24T05:33:27;97765.39;;;15.34
75811;BMP280;64449;50.016;19.954;2023-04-24T05:35:53;97766.16;;;15.40
75811;BMP280;64449;50.016;19.954;2023-04-24T05:38:18;97769.88;;;15.48
75811;BMP280;64449;50.016;19.954;2023-04-24T05:40:45;97769.02;;;15.53
75811;BMP280;64449;50.016;19.954;2023-04-24T05:43:11;97768.69;;;15.59
75811;BMP280;64449;50.016;19.954;2023-04-24T05:45:36;97763.83;;;15.65
75811;BMP280;64449;50.016;19.954;2023-04-24T05:48:03;97766.94;;;15.72
75811;BMP280;64449;50.016;19.954;2023-04-24T05:50:28;97764.48;;;15.78
75811;BMP280;64449;50.016;19.954;2023-04-24T05:52:54;97762.90;;;15.86
75811;BMP280;64449;50.016;19.954;2023-04-24T05:55:19;97765.84;;;15.92
75811;BMP280;64449;50.016;19.954;2023-04-24T05:57:45;97766.48;;;15.99
75811;BMP280;64449;50.016;19.954;2023-04-24T06:00:12;97764.96;;;16.06
75811;BMP280;64449;50.016;19.954;2023-04-24T06:02:38;97766.70;;;16.14
75811;BMP280;64449;50.016;19.954;2023-04-24T06:05:04;97768.33;;;16.20
75811;BMP280;64449;50.016;19.954;2023-04-24T06:07:30;97765.23;;;16.28
75811;BMP280;64449;50.016;19.954;2023-04-24T06:09:56;97767.30;;;16.34
75811;BMP280;64449;50.016;19.954;2023-04-24T06:12:22;97762.86;;;16.40
75811;BMP280;64449;50.016;19.954;2023-04-24T06:14:48;97762.13;;;16.47
75811;BMP280;64449;50.016;19.954;2023-04-24T06:17:14;97759.14;;;16.54
75811;BMP280;64449;50.016;19.954;2023-04-24T06:19:39;97753.91;;;16.62
75811;BMP280;64449;50.016;19.954;2023-04-24T06:22:05;97752.70;;;16.69
75811;BMP280;64449;50.016;19.954;2023-04-24T06:24:31;97752.49;;;16.78
75811;BMP280;64449;50.016;19.954;2023-04-24T06:26:56;97747.76;;;16.85
75811;BMP280;64449;50.016;19.954;2023-04-24T06:29:22;97748.33;;;16.95
75811;BMP280;64449;50.016;19.954;2023-04-24T06:31:48;97743.43;;;17.06
75811;BMP280;64449;50.016;19.954;2023-04-24T06:34:13;97743.63;;;17.17
75811;BMP280;64449;50.016;19.954;2023-04-24T06:36:39;97738.52;;;17.28
75811;BMP280;64449;50.016;19.954;2023-04-24T06:39:04;97739.30;;;17.40
75811;BMP280;64449;50.016;19.954;2023-04-24T06:41:30;97737.17;;;17.52
75811;BMP280;64449;50.016;19.954;2023-04-24T06:43:55;97731.89;;;17.64
75811;BMP280;64449;50.016;19.954;2023-04-24T06:46:21;97734.54;;;17.78
75811;BMP280;64449;50.016;19.954;2023-04-24T06:48:49;97732.95;;;17.90
75811;BMP280;64449;50.016;19.954;2023-04-24T06:51:15;97730.77;;;18.03
75811;BMP280;64449;50.016;19.954;2023-04-24T06:53:42;97729.44;;;18.16
75811;BMP280;64449;50.016;19.954;2023-04-24T06:56:08;97731.49;;;18.29
75811;BMP280;64449;50.016;19.954;2023-04-24T06:58:33;97728.81;;;18.42
75811;BMP280;64449;50.016;19.954;2023-04-24T07:00:59;97730.17;;;18.56
75811;BMP280;64449;50.016;19.954;2023-04-24T07:03:24;97727.77;;;18.69
75811;BMP280;64449;50.016;19.954;2023-04-24T07:05:49;97728.63;;;18.78
75811;BMP280;64449;50.016;19.954;2023-04-24T07:08:15;97725.50;;;18.87
75811;BMP280;64449;50.016;19.954;2023-04-24T07:10:42;97726.77;;;18.97
75811;BMP280;64449;50.016;19.954;2023-04-24T07:13:08;97717.87;;;19.07
75811;BMP280;64449;50.016;19.954;2023-04-24T07:15:33;97715.20;;;19.18
75811;BMP280;64449;50.016;19.954;2023-04-24T07:18:00;97715.13;;;19.30
75811;BMP280;64449;50.016;19.954;2023-04-24T07:20:25;97713.77;;;19.42
75811;BMP280;64449;50.016;19.954;2023-04-24T07:22:51;97711.07;;;19.53
75811;BMP280;64449;50.016;19.954;2023-04-24T07:25:18;97710.19;;;19.67
75811;BMP280;64449;50.016;19.954;2023-04-24T07:27:44;97703.85;;;19.78
75811;BMP280;64449;50.016;19.954;2023-04-24T07:30:10;97699.65;;;19.90
75811;BMP280;64449;50.016;19.954;2023-04-24T07:32:36;97696.70;;;20.02
75811;BMP280;64449;50.016;19.954;2023-04-24T07:35:01;97694.77;;;20.12
75811;BMP280;64449;50.016;19.954;2023-04-24T07:37:27;97691.13;;;20.26
75811;BMP280;64449;50.016;19.954;2023-04-24T07:39:53;97687.16;;;20.41
75811;BMP280;64449;50.016;19.954;2023-04-24T07:42:18;97690.55;;;20.54
75811;BMP280;64449;50.016;19.954;2023-04-24T07:44:44;97689.17;;;20.68
75811;BMP280;64449;50.016;19.954;2023-04-24T07:47:11;97687.13;;;20.82
75811;BMP280;64449;50.016;19.954;2023-04-24T07:49:36;97687.87;;;21.00
75811;BMP280;64449;50.016;19.954;2023-04-24T07:52:02;97681.93;;;21.15
75811;BMP280;64449;50.016;19.954;2023-04-24T07:54:28;97681.80;;;21.32
75811;BMP280;64449;50.016;19.954;2023-04-24T07:56:54;97679.35;;;21.50
75811;BMP280;64449;50.016;19.954;2023-04-24T07:59:19;97676.27;;;21.69
75811;BMP280;64449;50.016;19.954;2023-04-24T08:01:45;97675.46;;;21.85
75811;BMP280;64449;50.016;19.954;2023-04-24T08:04:10;97678.48;;;22.03
75811;BMP280;64449;50.016;19.954;2023-04-24T08:06:36;97678.00;;;22.19
75811;BMP280;64449;50.016;19.954;2023-04-24T08:09:01;97677.86;;;22.33
75811;BMP280;64449;50.016;19.954;2023-04-24T08:11:27;97664.99;;;22.39
75811;BMP280;64449;50.016;19.954;2023-04-24T08:13:52;97666.97;;;22.54
75811;BMP280;64449;50.016;19.954;2023-04-24T08:16:18;97666.64;;;22.77
75811;BMP280;64449;50.016;19.954;2023-04-24T08:18:43;97664.36;;;23.03
75811;BMP280;64449;50.016;19.954;2023-04-24T08:21:08;97658.30;;;23.32
75811;BMP280;64449;50.016;19.954;2023-04-24T08:23:34;97657.52;;;23.57
75811;BMP280;64449;50.016;19.954;2023-04-24T08:25:59;97654.46;;;23.80
75811;BMP280;64449;50.016;19.954;2023-04-24T08:28:25;97651.88;;;24.03
75811;BMP280;64449;50.016;19.954;2023-04-24T08:30:51;97652.41;;;24.21
75811;BMP280;64449;50.016;19.954;2023-04-24T08:33:21;97649.02;;;24.32
75811;BMP280;64449;50.016;19.954;2023-04-24T08:35:46;97648.98;;;24.47
75811;BMP280;64449;50.016;19.954;2023-04-24T08:38:12;97649.89;;;24.47
75811;BMP280;64449;50.016;19.954;2023-04-24T08:40:38;97647.91;;;24.49
75811;BMP280;64449;50.016;19.954;2023-04-24T08:43:04;97649.96;;;24.60
75811;BMP280;64449;50.016;19.954;2023-04-24T08:45:30;97649.26;;;24.77
75811;BMP280;64449;50.016;19.954;2023-04-24T08:47:57;97643.52;;;24.92
75811;BMP280;64449;50.016;19.954;2023-04-24T08:50:24;97641.80;;;25.06
75811;BMP280;64449;50.016;19.954;2023-04-24T08:52:50;97632.10;;;25.19
75811;BMP280;64449;50.016;19.954;2023-04-24T08:55:16;97636.67;;;25.38
75811;BMP280;64449;50.016;19.954;2023-04-24T08:57:45;97636.09;;;25.49
75811;BMP280;64449;50.016;19.954;2023-04-24T09:00:11;97632.05;;;25.56
75811;BMP280;64449;50.016;19.954;2023-04-24T09:02:41;97633.27;;;25.53
75811;BMP280;64449;50.016;19.954;2023-04-24T09:05:07;97631.23;;;25.52
75811;BMP280;64449;50.016;19.954;2023-04-24T09:07:35;97629.20;;;25.60
75811;BMP280;64449;50.016;19.954;2023-04-24T09:10:02;97627.41;;;25.79
75811;BMP280;64449;50.016;19.954;2023-04-24T09:12:28;97632.83;;;25.96
75811;BMP280;64449;50.016;19.954;2023-04-24T09:14:54;97627.50;;;26.04
75811;BMP280;64449;50.016;19.954;2023-04-24T09:17:20;97626.48;;;26.09
75811;BMP280;64449;50.016;19.954;2023-04-24T09:19:49;97619.81;;;26.06
75811;BMP280;64449;50.016;19.954;2023-04-24T09:22:15;97620.95;;;26.08
75811;BMP280;64449;50.016;19.954;2023-04-24T09:24:40;97617.09;;;26.08
75811;BMP280;64449;50.016;19.954;2023-04-24T09:27:06;97617.66;;;26.11
75811;BMP280;64449;50.016;19.954;2023-04-24T09:29:32;97618.30;;;26.28
75811;BMP280;64449;50.016;19.954;2023-04-24T09:31:58;97613.34;;;26.57
75811;BMP280;64449;50.016;19.954;2023-04-24T09:34:27;97608.50;;;26.95
75811;BMP280;64449;50.016;19.954;2023-04-24T09:36:53;97608.95;;;27.24
75811;BMP280;64449;50.016;19.954;2023-04-24T09:39:19;97605.39;;;27.34
75811;BMP280;64449;50.016;19.954;2023-04-24T09:46:38;97593.89;;;27.65
75811;BMP280;64449;50.016;19.954;2023-04-24T09:49:15;97593.20;;;27.79
75811;BMP280;64449;50.016;19.954;2023-04-24T09:51:42;97587.33;;;27.91
75811;BMP280;64449;50.016;19.954;2023-04-24T09:54:14;97592.11;;;28.20
75811;BMP280;64449;50.016;19.954;2023-04-24T09:56:45;97591.38;;;28.56
75811;BMP280;64449;50.016;19.954;2023-04-24T09:59:12;97588.19;;;28.65
75811;BMP280;64449;50.016;19.954;2023-04-24T10:01:37;97582.62;;;28.71
75811;BMP280;64449;50.016;19.954;2023-04-24T10:04:04;97571.61;;;28.83
75811;BMP280;64449;50.016;19.954;2023-04-24T10:06:32;97568.27;;;29.20
75811;BMP280;64449;50.016;19.954;2023-04-24T10:08:59;97565.91;;;29.47
75811;BMP280;64449;50.016;19.954;2023-04-24T10:11:27;97564.98;;;29.79
75811;BMP280;64449;50.016;19.954;2023-04-24T10:13:53;97564.10;;;29.94
75811;BMP280;64449;50.016;19.954;2023-04-24T10:16:20;97565.55;;;30.11
75811;BMP280;64449;50.016;19.954;2023-04-24T10:18:48;97566.19;;;30.35
75811;BMP280;64449;50.016;19.954;2023-04-24T10:21:14;97564.89;;;30.59
75811;BMP280;64449;50.016;19.954;2023-04-24T10:23:41;97559.44;;;30.62
75811;BMP280;64449;50.016;19.954;2023-04-24T10:26:09;97558.38;;;30.73
75811;BMP280;64449;50.016;19.954;2023-04-24T10:28:36;97557.23;;;30.89
75811;BMP280;64449;50.016;19.954;2023-04-24T10:31:02;97557.04;;;31.02
75811;BMP280;64449;50.016;19.954;2023-04-24T10:33:29;97554.71;;;31.16
75811;BMP280;64449;50.016;19.954;2023-04-24T10:35:56;97555.58;;;31.10
75811;BMP280;64449;50.016;19.954;2023-04-24T10:38:25;97553.63;;;30.78
75811;BMP280;64449;50.016;19.954;2023-04-24T10:40:57;97557.45;;;30.50
75811;BMP280;64449;50.016;19.954;2023-04-24T10:43:23;97556.48;;;30.19
75811;BMP280;64449;50.016;19.954;2023-04-24T10:46:09;97553.41;;;30.12
75811;BMP280;64449;50.016;19.954;2023-04-24T10:48:41;97549.92;;;30.31
75811;BMP280;64449;50.016;19.954;2023-04-24T10:51:11;97544.73;;;30.61
75811;BMP280;64449;50.016;19.954;2023-04-24T10:53:36;97541.68;;;31.00
75811;BMP280;64449;50.016;19.954;2023-04-24T10:56:05;97538.89;;;31.03
75811;BMP280;64449;50.016;19.954;2023-04-24T10:58:41;97533.34;;;30.92
75811;BMP280;64449;50.016;19.954;2023-04-24T11:01:23;97533.78;;;30.88
75811;BMP280;64449;50.016;19.954;2023-04-24T11:03:54;97532.91;;;30.71
75811;BMP280;64449;50.016;19.954;2023-04-24T11:06:29;97535.50;;;30.43
75811;BMP280;64449;50.016;19.954;2023-04-24T11:09:02;97534.59;;;30.34
75811;BMP280;64449;50.016;19.954;2023-04-24T11:11:30;97535.73;;;30.18
75811;BMP280;64449;50.016;19.954;2023-04-24T11:16:30;97531.34;;;29.70
75811;BMP280;64449;50.016;19.954;2023-04-24T11:21:54;97525.33;;;29.09
75811;BMP280;64449;50.016;19.954;2023-04-24T11:34:40;97521.54;;;29.76
75811;BMP280;64449;50.016;19.954;2023-04-24T11:37:05;97517.30;;;29.88
75811;BMP280;64449;50.016;19.954;2023-04-24T11:39:36;97517.44;;;29.95
75811;BMP280;64449;50.016;19.954;2023-04-24T11:42:03;97519.57;;;29.76
75811;BMP280;64449;50.016;19.954;2023-04-24T11:44:29;97514.67;;;29.39
75811;BMP280;64449;50.016;19.954;2023-04-24T11:46:57;97512.17;;;29.32
75811;BMP280;64449;50.016;19.954;2023-04-24T11:49:22;97510.09;;;29.21
75811;BMP280;64449;50.016;19.954;2023-04-24T11:51:47;97504.84;;;29.18
75811;BMP280;64449;50.016;19.954;2023-04-24T11:54:13;97502.19;;;29.14
75811;BMP280;64449;50.016;19.954;2023-04-24T11:56:38;97496.67;;;29.08
75811;BMP280;64449;50.016;19.954;2023-04-24T11:59:04;97496.29;;;29.00
75811;BMP280;64449;50.016;19.954;2023-04-24T12:01:29;97492.11;;;28.93
75811;BMP280;64449;50.016;19.954;2023-04-24T12:03:59;97489.52;;;28.85
75811;BMP280;64449;50.016;19.954;2023-04-24T12:06:25;97485.98;;;28.78
75811;BMP280;64449;50.016;19.954;2023-04-24T12:08:52;97485.22;;;28.72
75811;BMP280;64449;50.016;19.954;2023-04-24T12:11:20;97483.92;;;28.79
75811;BMP280;64449;50.016;19.954;2023-04-24T12:13:45;97478.51;;;28.88
75811;BMP280;64449;50.016;19.954;2023-04-24T12:16:11;97481.50;;;29.00
75811;BMP280;64449;50.016;19.954;2023-04-24T12:18:42;97480.84;;;29.11
75811;BMP280;64449;50.016;19.954;2023-04-24T12:21:15;97479.85;;;29.12
75811;BMP280;64449;50.016;19.954;2023-04-24T12:23:45;97476.25;;;29.19
75811;BMP280;64449;50.016;19.954;2023-04-24T12:26:21;97475.61;;;29.30
75811;BMP280;64449;50.016;19.954;2023-04-24T12:28:49;97471.98;;;29.37
75811;BMP280;64449;50.016;19.954;2023-04-24T12:31:20;97470.10;;;29.18
75811;BMP280;64449;50.016;19.954;2023-04-24T12:33:46;97466.67;;;28.83
75811;BMP280;64449;50.016;19.954;2023-04-24T12:36:12;97466.21;;;28.57
75811;BMP280;64449;50.016;19.954;2023-04-24T12:38:38;97476.70;;;28.35
75811;BMP280;64449;50.016;19.954;2023-04-24T12:41:11;97469.92;;;28.09
75811;BMP280;64449;50.016;19.954;2023-04-24T12:43:37;97476.73;;;27.61
75811;BMP280;64449;50.016;19.954;2023-04-24T12:46:03;97477.48;;;26.89
75811;BMP280;64449;50.016;19.954;2023-04-24T12:48:29;97482.90;;;26.20
75811;BMP280;64449;50.016;19.954;2023-04-24T12:50:59;97485.60;;;25.75
75811;BMP280;64449;50.016;19.954;2023-04-24T12:53:27;97492.29;;;25.40
75811;BMP280;64449;50.016;19.954;2023-04-24T12:55:54;97489.14;;;25.15
75811;BMP280;64449;50.016;19.954;2023-04-24T12:58:20;97489.04;;;24.88
75811;BMP280;64449;50.016;19.954;2023-04-24T13:00:46;97494.70;;;24.62
75811;BMP280;64449;50.016;19.954;2023-04-24T13:03:12;97491.80;;;24.27
75811;BMP280;64449;50.016;19.954;2023-04-24T13:05:37;97501.80;;;23.96
75811;BMP280;64449;50.016;19.954;2023-04-24T13:08:03;97505.64;;;23.75
75811;BMP280;64449;50.016;19.954;2023-04-24T13:10:28;97503.19;;;23.56
75811;BMP280;64449;50.016;19.954;2023-04-24T13:12:53;97509.89;;;23.37
75811;BMP280;64449;50.016;19.954;2023-04-24T13:15:19;97510.35;;;23.11
75811;BMP280;64449;50.016;19.954;2023-04-24T13:17:45;97508.08;;;22.90
75811;BMP280;64449;50.016;19.954;2023-04-24T13:20:10;97511.65;;;22.68
75811;BMP280;64449;50.016;19.954;2023-04-24T13:22:36;97515.23;;;22.46
75811;BMP280;64449;50.016;19.954;2023-04-24T13:25:02;97514.27;;;22.33
75811;BMP280;64449;50.016;19.954;2023-04-24T13:27:27;97517.66;;;22.23
75811;BMP280;64449;50.016;19.954;2023-04-24T13:29:52;97516.66;;;22.09
75811;BMP280;64449;50.016;19.954;2023-04-24T13:32:18;97522.05;;;21.94
75811;BMP280;64449;50.016;19.954;2023-04-24T13:34:43;97524.03;;;21.84
75811;BMP280;64449;50.016;19.954;2023-04-24T13:37:08;97520.53;;;21.76
75811;BMP280;64449;50.016;19.954;2023-04-24T13:39:34;97524.27;;;21.70
75811;BMP280;64449;50.016;19.954;2023-04-24T13:42:00;97528.80;;;21.63
75811;BMP280;64449;50.016;19.954;2023-04-24T13:44:26;97529.84;;;21.55
75811;BMP280;64449;50.016;19.954;2023-04-24T13:46:53;97529.44;;;21.41
75811;BMP280;64449;50.016;19.954;2023-04-24T13:49:20;97531.69;;;21.28
75811;BMP280;64449;50.016;19.954;2023-04-24T13:51:46;97536.38;;;21.18
75811;BMP280;64449;50.016;19.954;2023-04-24T13:54:12;97542.02;;;21.10
75811;BMP280;64449;50.016;19.954;2023-04-24T13:56:39;97537.23;;;21.05
75811;BMP280;64449;50.016;19.954;2023-04-24T13:59:04;97547.06;;;20.95
75811;BMP280;64449;50.016;19.954;2023-04-24T14:01:30;97546.40;;;20.81
75811;BMP280;64449;50.016;19.954;2023-04-24T14:03:56;97547.45;;;20.68
75811;BMP280;64449;50.016;19.954;2023-04-24T14:06:22;97547.06;;;20.55
75811;BMP280;64449;50.016;19.954;2023-04-24T14:08:48;97549.89;;;20.42
75811;BMP280;64449;50.016;19.954;2023-04-24T14:11:14;97549.71;;;20.28